Airport View

Enter AWOS ICAO identifier for current METAR.

ex. KFNL

11 Dec 2019 21:54

Frequency: 118.95

Phone: 620-424-3747

Other Area AWOS: KJHN - KHQG - K19S - K3K3

TAF KGCK 111720Z 1118/1218 22012G20KT P6SM FEW250 FM112000 22020G30KT P6SM SCT250 FM120300 21015G25KT P6SM BKN150 FM121000 30010KT P6SM SCT250